Time;durP1;ratioP1;P1;durP2;ratioP2;P2;SDS_P1;SDS_P2;PMS_P1;PMS_P2;Temp;Humidity;BMP_temperature;BMP_pressure;BME280_temperature;BME280_humidity;BME280_pressure;Samples;Min_cycle;Max_cycle;Signal;HPM_P1;HPM_P2
2023/12/09 00:02:22;;;;;;;80.83;48.77;;;;;;;;;;5078295;28;20545;-38
2023/12/09 00:04:50;;;;;;;68.17;44.93;;;;;;;;;;5086533;28;20446;-39
2023/12/09 00:07:19;;;;;;;75.60;47.00;;;;;;;;;;5085693;28;20461;-40
2023/12/09 00:09:47;;;;;;;75.67;47.80;;;;;;;;;;5073139;28;20515;-40
2023/12/09 00:12:15;;;;;;;68.47;46.27;;;;;;;;;;5089843;28;20544;-38
2023/12/09 00:14:42;;;;;;;78.00;48.20;;;;;;;;;;5079458;28;20741;-42
2023/12/09 00:17:10;;;;;;;60.30;44.10;;;;;;;;;;5082849;28;20453;-39
2023/12/09 00:19:37;;;;;;;69.43;44.70;;;;;;;;;;5073056;28;20520;-38
2023/12/09 00:22:05;;;;;;;70.90;47.40;;;;;;;;;;5088982;28;20451;-39
2023/12/09 00:24:34;;;;;;;75.63;47.47;;;;;;;;;;5088561;28;20785;-38
2023/12/09 00:27:01;;;;;;;82.23;45.00;;;;;;;;;;5076926;28;20447;-38
2023/12/09 00:29:29;;;;;;;86.33;45.97;;;;;;;;;;5077585;28;20522;-38
2023/12/09 00:31:57;;;;;;;95.33;48.57;;;;;;;;;;5077712;28;20454;-39
2023/12/09 00:34:24;;;;;;;86.73;48.23;;;;;;;;;;5085526;28;20766;-41
2023/12/09 00:36:52;;;;;;;85.77;48.63;;;;;;;;;;5085737;28;20525;-38
2023/12/09 00:39:20;;;;;;;76.43;45.80;;;;;;;;;;5069275;28;20513;-40
2023/12/09 00:41:51;;;;;;;85.63;48.43;;;;;;;;;;5078106;28;20430;-38
2023/12/09 00:44:20;;;;;;;80.93;46.00;;;;;;;;;;5068615;28;20960;-41
2023/12/09 00:46:49;;;;;;;76.37;47.10;;;;;;;;;;5077057;28;21013;-39
2023/12/09 00:49:16;;;;;;;73.53;45.43;;;;;;;;;;5069324;28;21040;-39
2023/12/09 00:51:44;;;;;;;76.43;44.03;;;;;;;;;;5068586;28;20458;-38
2023/12/09 00:54:12;;;;;;;80.50;47.57;;;;;;;;;;5068787;28;20557;-40
2023/12/09 00:56:39;;;;;;;62.30;42.83;;;;;;;;;;5086419;28;20437;-39
2023/12/09 00:59:08;;;;;;;66.23;44.23;;;;;;;;;;5079220;28;20460;-38
2023/12/09 01:01:36;;;;;;;77.90;48.30;;;;;;;;;;5086396;28;20520;-38
2023/12/09 01:04:04;;;;;;;67.47;45.50;;;;;;;;;;5087681;28;20515;-38
2023/12/09 01:06:32;;;;;;;64.97;41.20;;;;;;;;;;5089906;28;20445;-37
2023/12/09 01:08:59;;;;;;;81.90;43.80;;;;;;;;;;5088257;28;20548;-41
2023/12/09 01:11:28;;;;;;;67.17;44.57;;;;;;;;;;5089580;28;20425;-42
2023/12/09 01:13:55;;;;;;;96.67;47.07;;;;;;;;;;5084773;28;20451;-40
2023/12/09 01:16:24;;;;;;;83.97;44.60;;;;;;;;;;5084218;28;20436;-43
2023/12/09 01:18:52;;;;;;;87.27;48.33;;;;;;;;;;5088441;28;20867;-38
2023/12/09 01:21:20;;;;;;;81.37;46.30;;;;;;;;;;5095253;28;20532;-40
2023/12/09 01:23:48;;;;;;;67.60;46.10;;;;;;;;;;5081901;28;20800;-39
2023/12/09 01:26:15;;;;;;;68.33;44.07;;;;;;;;;;5089360;28;20503;-41
2023/12/09 01:28:44;;;;;;;74.20;45.70;;;;;;;;;;5088174;28;20477;-40
2023/12/09 01:31:11;;;;;;;90.50;48.33;;;;;;;;;;5083093;28;20785;-40
2023/12/09 01:33:40;;;;;;;87.97;50.10;;;;;;;;;;5076825;28;20449;-38
2023/12/09 01:36:09;;;;;;;75.63;48.47;;;;;;;;;;5088766;28;20434;-40
2023/12/09 01:38:36;;;;;;;70.83;41.30;;;;;;;;;;5088644;28;20453;-39
2023/12/09 01:41:04;;;;;;;68.37;43.50;;;;;;;;;;5088762;28;21042;-39
2023/12/09 01:43:31;;;;;;;64.27;43.53;;;;;;;;;;5080849;28;20457;-38
2023/12/09 01:46:05;;;;;;;70.07;41.97;;;;;;;;;;5071826;28;20434;-38
2023/12/09 01:48:33;;;;;;;72.23;43.10;;;;;;;;;;5088110;28;20492;-39
2023/12/09 01:51:03;;;;;;;65.60;44.80;;;;;;;;;;5070863;28;20446;-40
2023/12/09 01:53:31;;;;;;;58.30;41.80;;;;;;;;;;5072524;28;20996;-38
2023/12/09 01:56:00;;;;;;;66.77;43.50;;;;;;;;;;5071012;28;20461;-41
2023/12/09 01:58:28;;;;;;;67.20;45.60;;;;;;;;;;5080788;28;20553;-39
2023/12/09 02:00:55;;;;;;;72.80;41.93;;;;;;;;;;5068694;28;20539;-40
2023/12/09 02:03:23;;;;;;;69.83;43.00;;;;;;;;;;5081485;28;20450;-39
2023/12/09 02:05:51;;;;;;;73.63;44.90;;;;;;;;;;5071924;28;20438;-40
2023/12/09 02:08:20;;;;;;;76.23;44.20;;;;;;;;;;5085664;28;20477;-40
2023/12/09 02:10:50;;;;;;;77.53;43.40;;;;;;;;;;5081653;28;20521;-42
2023/12/09 02:13:21;;;;;;;75.90;46.80;;;;;;;;;;5085943;28;20492;-39
2023/12/09 02:15:51;;;;;;;72.33;44.77;;;;;;;;;;5084429;28;20934;-38
2023/12/09 02:18:18;;;;;;;66.57;42.00;;;;;;;;;;5091285;28;20980;-38
2023/12/09 02:20:46;;;;;;;71.33;43.00;;;;;;;;;;5082180;28;20569;-38
2023/12/09 02:23:15;;;;;;;81.17;46.37;;;;;;;;;;5086507;28;20504;-40
2023/12/09 02:25:44;;;;;;;77.73;45.87;;;;;;;;;;5073094;28;21103;-38
2023/12/09 02:28:14;;;;;;;74.73;42.70;;;;;;;;;;5078605;28;20529;-43
2023/12/09 02:30:46;;;;;;;73.70;44.17;;;;;;;;;;5071731;28;20431;-42
2023/12/09 02:33:15;;;;;;;69.37;42.73;;;;;;;;;;5080417;28;20455;-43
2023/12/09 02:35:44;;;;;;;74.03;43.23;;;;;;;;;;5072742;28;20442;-38
2023/12/09 02:38:12;;;;;;;75.10;44.37;;;;;;;;;;5076345;28;20485;-41
2023/12/09 02:40:41;;;;;;;93.87;48.33;;;;;;;;;;5091430;28;20480;-42
2023/12/09 02:43:09;;;;;;;71.60;43.67;;;;;;;;;;5091557;28;20457;-41
2023/12/09 02:45:37;;;;;;;88.03;48.80;;;;;;;;;;5091000;28;20521;-43
2023/12/09 02:48:05;;;;;;;71.23;42.37;;;;;;;;;;5083441;28;21025;-41
2023/12/09 02:50:32;;;;;;;86.73;46.73;;;;;;;;;;5091870;28;20426;-40
2023/12/09 02:53:00;;;;;;;65.03;40.40;;;;;;;;;;5071700;28;21179;-41
2023/12/09 02:55:28;;;;;;;65.23;41.73;;;;;;;;;;5077261;28;20987;-39
2023/12/09 02:57:57;;;;;;;66.80;41.47;;;;;;;;;;5082365;28;21003;-42
2023/12/09 03:00:24;;;;;;;67.57;39.67;;;;;;;;;;5082391;28;20912;-39
2023/12/09 03:02:52;;;;;;;55.70;37.37;;;;;;;;;;5088998;28;20453;-39
2023/12/09 03:05:20;;;;;;;59.97;39.03;;;;;;;;;;5078459;28;20873;-38
2023/12/09 03:07:47;;;;;;;66.83;38.47;;;;;;;;;;5086958;28;20536;-41
2023/12/09 03:10:15;;;;;;;80.40;39.00;;;;;;;;;;5084836;28;20778;-40
2023/12/09 03:12:43;;;;;;;73.43;41.07;;;;;;;;;;5082338;28;20480;-40
2023/12/09 03:15:12;;;;;;;65.80;37.50;;;;;;;;;;5084194;28;20433;-43
2023/12/09 03:17:41;;;;;;;68.53;40.20;;;;;;;;;;5090926;28;20597;-38
2023/12/09 03:20:09;;;;;;;120.47;46.13;;;;;;;;;;5074941;28;20437;-40
2023/12/09 03:22:37;;;;;;;110.73;45.10;;;;;;;;;;5083022;28;20968;-41
2023/12/09 03:25:05;;;;;;;74.27;39.90;;;;;;;;;;5082841;28;20517;-42
2023/12/09 03:27:32;;;;;;;88.93;41.90;;;;;;;;;;5074123;28;20551;-41
2023/12/09 03:30:00;;;;;;;93.30;42.30;;;;;;;;;;5082070;28;20491;-40
2023/12/09 03:32:29;;;;;;;99.70;42.20;;;;;;;;;;5084298;28;20450;-38
2023/12/09 03:34:57;;;;;;;233.00;58.50;;;;;;;;;;5080792;28;20437;-39
2023/12/09 03:37:26;;;;;;;238.07;51.63;;;;;;;;;;5084318;28;20492;-38
2023/12/09 03:39:54;;;;;;;146.90;51.37;;;;;;;;;;5087032;28;20461;-38
2023/12/09 03:42:22;;;;;;;138.17;49.27;;;;;;;;;;5084250;28;20564;-38
2023/12/09 03:44:49;;;;;;;220.23;55.83;;;;;;;;;;5082104;28;20430;-41
2023/12/09 03:47:17;;;;;;;237.40;60.77;;;;;;;;;;5084640;28;20481;-41
2023/12/09 03:49:57;;;;;;;300.70;63.23;;;;;;;;;;5072701;28;20441;-39
2023/12/09 03:52:24;;;;;;;236.87;55.93;;;;;;;;;;5076185;28;20455;-39
2023/12/09 03:54:52;;;;;;;136.13;48.37;;;;;;;;;;5079350;28;20448;-40
2023/12/09 03:57:20;;;;;;;219.37;51.20;;;;;;;;;;5090218;28;20540;-39
2023/12/09 03:59:48;;;;;;;225.67;55.90;;;;;;;;;;5081014;28;20469;-40
2023/12/09 04:02:15;;;;;;;254.00;61.50;;;;;;;;;;5077937;28;20534;-39
2023/12/09 04:04:43;;;;;;;180.03;52.23;;;;;;;;;;5085844;28;20472;-40
2023/12/09 04:07:12;;;;;;;258.57;59.73;;;;;;;;;;5081960;28;20477;-38
2023/12/09 04:09:40;;;;;;;375.40;67.40;;;;;;;;;;5089997;28;20486;-38
2023/12/09 04:12:08;;;;;;;169.47;49.57;;;;;;;;;;5078388;28;20450;-41
2023/12/09 04:14:36;;;;;;;165.20;51.97;;;;;;;;;;5076272;28;20986;-41
2023/12/09 04:17:04;;;;;;;135.83;46.53;;;;;;;;;;5086900;28;20466;-39
2023/12/09 04:19:32;;;;;;;136.23;49.77;;;;;;;;;;5069975;28;20576;-40
2023/12/09 04:22:00;;;;;;;173.27;50.13;;;;;;;;;;5088058;28;20530;-38
2023/12/09 04:24:29;;;;;;;223.47;54.10;;;;;;;;;;5088953;28;20948;-39
2023/12/09 04:26:57;;;;;;;112.73;46.87;;;;;;;;;;5079002;28;20438;-42
2023/12/09 04:29:25;;;;;;;177.07;50.37;;;;;;;;;;5069476;28;20492;-38
2023/12/09 04:31:52;;;;;;;166.77;50.73;;;;;;;;;;5069513;28;20938;-38
2023/12/09 04:34:20;;;;;;;247.70;61.67;;;;;;;;;;5074403;28;20429;-39
2023/12/09 04:36:48;;;;;;;135.37;50.20;;;;;;;;;;5088737;28;20948;-40
2023/12/09 04:39:15;;;;;;;251.60;57.43;;;;;;;;;;5076897;28;20519;-41
2023/12/09 04:41:44;;;;;;;331.73;67.17;;;;;;;;;;5085765;28;20825;-40
2023/12/09 04:44:12;;;;;;;392.30;71.77;;;;;;;;;;5077199;28;21024;-37
2023/12/09 04:46:40;;;;;;;157.77;50.00;;;;;;;;;;5084821;28;20976;-38
2023/12/09 04:49:07;;;;;;;365.93;66.90;;;;;;;;;;5089746;28;20426;-41
2023/12/09 04:51:35;;;;;;;291.27;62.93;;;;;;;;;;5089662;28;20457;-41
2023/12/09 04:54:03;;;;;;;215.73;51.50;;;;;;;;;;5089113;28;20495;-40
2023/12/09 04:56:31;;;;;;;344.27;65.17;;;;;;;;;;5080795;28;20546;-39
2023/12/09 04:58:59;;;;;;;261.23;58.90;;;;;;;;;;5088697;28;20461;-39
2023/12/09 05:01:28;;;;;;;387.60;73.37;;;;;;;;;;5074903;28;20430;-39
2023/12/09 05:03:56;;;;;;;138.07;49.07;;;;;;;;;;5086195;28;20537;-39
2023/12/09 05:06:24;;;;;;;373.27;81.57;;;;;;;;;;5072923;28;20521;-40
2023/12/09 05:08:51;;;;;;;264.07;60.50;;;;;;;;;;5089082;28;20457;-39
2023/12/09 05:11:21;;;;;;;181.40;49.37;;;;;;;;;;5076840;28;20435;-39
2023/12/09 05:13:49;;;;;;;284.77;64.63;;;;;;;;;;5086015;28;20547;-38
2023/12/09 05:16:18;;;;;;;206.33;52.13;;;;;;;;;;5077156;28;20434;-40
2023/12/09 05:18:46;;;;;;;333.07;67.27;;;;;;;;;;5076464;28;20518;-38
2023/12/09 05:21:16;;;;;;;407.80;73.80;;;;;;;;;;5072833;28;20933;-42
2023/12/09 05:23:44;;;;;;;255.13;57.30;;;;;;;;;;5081129;28;21012;-40
2023/12/09 05:26:21;;;;;;;255.47;57.00;;;;;;;;;;5079607;28;20433;-41
2023/12/09 05:28:49;;;;;;;199.60;54.17;;;;;;;;;;5080719;28;20466;-39
2023/12/09 05:31:18;;;;;;;332.50;68.83;;;;;;;;;;5080514;28;20476;-40
2023/12/09 05:33:45;;;;;;;236.00;58.67;;;;;;;;;;5080587;28;20479;-39
2023/12/09 05:36:13;;;;;;;231.83;56.53;;;;;;;;;;5087026;28;20513;-38
2023/12/09 05:38:41;;;;;;;238.67;63.10;;;;;;;;;;5088192;28;21194;-39
2023/12/09 05:41:09;;;;;;;353.80;68.50;;;;;;;;;;5120406;22;21117;-39
2023/12/09 05:43:37;;;;;;;176.47;51.47;;;;;;;;;;5074565;28;20573;-41
2023/12/09 05:46:05;;;;;;;258.63;61.23;;;;;;;;;;5074303;28;20434;-39
2023/12/09 05:48:34;;;;;;;321.03;67.00;;;;;;;;;;5074280;28;20468;-39
2023/12/09 05:51:02;;;;;;;256.73;58.13;;;;;;;;;;5074326;28;20450;-41
2023/12/09 05:53:29;;;;;;;312.30;63.70;;;;;;;;;;5074410;28;20928;-40
2023/12/09 05:55:57;;;;;;;343.27;67.07;;;;;;;;;;5074058;28;20932;-39
2023/12/09 05:58:24;;;;;;;287.63;62.73;;;;;;;;;;5073753;28;20549;-39
2023/12/09 06:00:52;;;;;;;213.43;53.30;;;;;;;;;;5074353;28;20481;-39
2023/12/09 06:03:20;;;;;;;318.10;66.23;;;;;;;;;;5074438;28;20470;-39
2023/12/09 06:05:49;;;;;;;314.00;64.67;;;;;;;;;;5074246;28;20438;-40
2023/12/09 06:08:16;;;;;;;294.03;64.87;;;;;;;;;;5073581;28;20461;-39
2023/12/09 06:10:44;;;;;;;278.53;67.77;;;;;;;;;;5073950;28;20485;-41
2023/12/09 06:13:11;;;;;;;232.93;61.83;;;;;;;;;;5074437;28;20430;-39
2023/12/09 06:15:39;;;;;;;257.60;60.63;;;;;;;;;;5073680;28;20484;-42
2023/12/09 06:18:06;;;;;;;234.17;59.70;;;;;;;;;;5073447;28;20556;-39
2023/12/09 06:20:34;;;;;;;313.27;71.17;;;;;;;;;;5074725;28;20446;-40
2023/12/09 06:23:03;;;;;;;269.00;59.47;;;;;;;;;;5074124;28;20472;-40
2023/12/09 06:25:31;;;;;;;359.60;72.40;;;;;;;;;;5074065;28;20426;-41
2023/12/09 06:27:58;;;;;;;242.80;62.70;;;;;;;;;;5073227;28;20486;-40
2023/12/09 06:30:26;;;;;;;177.93;50.83;;;;;;;;;;5074084;28;20537;-40
2023/12/09 06:32:53;;;;;;;381.80;70.60;;;;;;;;;;5074039;28;20438;-40
2023/12/09 06:35:21;;;;;;;355.47;69.13;;;;;;;;;;5073601;28;20442;-40
2023/12/09 06:37:48;;;;;;;304.27;69.67;;;;;;;;;;5073173;28;20474;-40
2023/12/09 06:40:17;;;;;;;236.47;62.27;;;;;;;;;;5073364;28;20562;-40
2023/12/09 06:42:45;;;;;;;241.17;64.23;;;;;;;;;;5073865;28;20489;-40
2023/12/09 06:45:13;;;;;;;244.87;57.70;;;;;;;;;;5073620;28;20517;-40
2023/12/09 06:47:40;;;;;;;290.83;67.50;;;;;;;;;;5074389;28;20458;-40
2023/12/09 06:50:08;;;;;;;277.00;68.17;;;;;;;;;;5073833;28;20454;-39
2023/12/09 06:52:36;;;;;;;250.33;62.50;;;;;;;;;;5073759;28;20426;-40
2023/12/09 06:55:04;;;;;;;365.10;74.40;;;;;;;;;;5073033;28;20521;-40
2023/12/09 06:57:33;;;;;;;291.77;70.27;;;;;;;;;;5073448;28;20497;-41
2023/12/09 07:00:00;;;;;;;351.53;72.47;;;;;;;;;;5073388;28;20816;-40
2023/12/09 07:02:28;;;;;;;413.50;78.93;;;;;;;;;;5073321;28;20481;-40
2023/12/09 07:05:15;;;;;;;400.87;74.50;;;;;;;;;;5071007;28;20517;-41
2023/12/09 07:07:43;;;;;;;312.07;69.03;;;;;;;;;;5072284;28;20459;-41
2023/12/09 07:10:11;;;;;;;402.80;75.10;;;;;;;;;;5072510;28;21154;-40
2023/12/09 07:12:40;;;;;;;338.43;72.37;;;;;;;;;;5073206;28;20435;-40
2023/12/09 07:15:08;;;;;;;377.67;76.73;;;;;;;;;;5072568;28;20434;-40
2023/12/09 07:17:37;;;;;;;440.97;79.10;;;;;;;;;;5072640;28;20859;-39
2023/12/09 07:20:06;;;;;;;258.57;62.60;;;;;;;;;;5074299;28;20462;-39
2023/12/09 07:22:34;;;;;;;362.23;69.07;;;;;;;;;;5073158;28;20514;-40
2023/12/09 07:25:01;;;;;;;432.43;78.67;;;;;;;;;;5072556;28;20434;-41
2023/12/09 07:27:29;;;;;;;470.10;81.33;;;;;;;;;;5072472;28;20462;-41
2023/12/09 07:30:00;;;;;;;481.80;90.17;;;;;;;;;;5072833;28;21114;-41
2023/12/09 07:32:28;;;;;;;308.13;66.67;;;;;;;;;;5072944;28;20460;-41
2023/12/09 07:34:56;;;;;;;318.83;63.40;;;;;;;;;;5072216;28;20430;-41
2023/12/09 07:37:24;;;;;;;399.30;74.73;;;;;;;;;;5072341;28;20809;-40
2023/12/09 07:39:52;;;;;;;408.23;81.40;;;;;;;;;;5071391;28;20458;-42
2023/12/09 07:42:19;;;;;;;428.73;82.10;;;;;;;;;;5072263;28;20444;-41
2023/12/09 07:44:47;;;;;;;288.80;65.60;;;;;;;;;;5072019;28;20476;-40
2023/12/09 07:47:16;;;;;;;264.07;59.17;;;;;;;;;;5071879;28;20511;-41
2023/12/09 07:49:44;;;;;;;286.90;61.40;;;;;;;;;;5072398;28;20493;-40
2023/12/09 07:52:12;;;;;;;495.77;84.43;;;;;;;;;;5071279;28;20435;-43
2023/12/09 07:54:39;;;;;;;378.17;74.67;;;;;;;;;;5072041;28;20427;-40
2023/12/09 07:57:07;;;;;;;392.00;75.57;;;;;;;;;;5071464;28;20453;-41
2023/12/09 07:59:34;;;;;;;406.30;75.87;;;;;;;;;;5071486;28;20458;-40
2023/12/09 08:02:02;;;;;;;522.13;87.23;;;;;;;;;;5077957;28;20526;-43
2023/12/09 08:04:31;;;;;;;466.47;84.07;;;;;;;;;;5071948;28;20474;-40
2023/12/09 08:06:59;;;;;;;523.77;91.73;;;;;;;;;;5071690;28;20430;-40
2023/12/09 08:09:26;;;;;;;462.27;84.63;;;;;;;;;;5071902;28;20553;-40
2023/12/09 08:11:54;;;;;;;464.23;81.37;;;;;;;;;;5072143;28;20437;-40
2023/12/09 08:14:21;;;;;;;413.07;80.77;;;;;;;;;;5071756;28;20422;-41
2023/12/09 08:16:49;;;;;;;481.50;93.23;;;;;;;;;;5071495;28;20509;-40
2023/12/09 08:19:17;;;;;;;442.97;85.67;;;;;;;;;;5071665;28;20546;-41
2023/12/09 08:21:46;;;;;;;535.53;93.73;;;;;;;;;;5081719;28;20805;-40
2023/12/09 08:24:14;;;;;;;518.23;92.60;;;;;;;;;;5071046;28;20543;-39
2023/12/09 08:26:42;;;;;;;362.73;71.90;;;;;;;;;;5071888;28;20445;-42
2023/12/09 08:29:14;;;;;;;479.87;91.13;;;;;;;;;;5070148;28;20449;-42
2023/12/09 08:31:41;;;;;;;508.47;92.23;;;;;;;;;;5071901;28;20928;-40
2023/12/09 08:34:09;;;;;;;468.00;89.87;;;;;;;;;;5071315;28;20446;-40
2023/12/09 08:36:37;;;;;;;443.10;84.13;;;;;;;;;;5071431;28;20862;-44
2023/12/09 08:39:07;;;;;;;364.67;77.33;;;;;;;;;;5071170;28;20450;-40
2023/12/09 08:41:35;;;;;;;622.33;102.00;;;;;;;;;;5071451;28;20434;-41
2023/12/09 08:44:03;;;;;;;473.33;97.37;;;;;;;;;;5071471;28;20466;-40
2023/12/09 08:46:31;;;;;;;474.60;93.53;;;;;;;;;;5071512;28;20434;-40
2023/12/09 08:48:58;;;;;;;380.97;84.37;;;;;;;;;;5070969;28;20493;-40
2023/12/09 08:51:26;;;;;;;419.23;86.20;;;;;;;;;;5071979;28;20466;-42
2023/12/09 08:53:53;;;;;;;471.47;95.40;;;;;;;;;;5071494;28;20481;-40
2023/12/09 08:56:22;;;;;;;406.80;85.13;;;;;;;;;;5071336;28;20463;-41
2023/12/09 08:58:50;;;;;;;498.10;94.13;;;;;;;;;;5071126;28;20512;-40
2023/12/09 09:01:18;;;;;;;432.90;90.17;;;;;;;;;;5071094;28;20980;-40
2023/12/09 09:03:45;;;;;;;535.50;102.50;;;;;;;;;;5069586;28;20503;-41
2023/12/09 09:06:13;;;;;;;312.07;76.60;;;;;;;;;;5071346;28;20437;-40
2023/12/09 09:08:42;;;;;;;432.73;96.63;;;;;;;;;;5065609;28;20474;-39
2023/12/09 09:11:12;;;;;;;436.67;93.10;;;;;;;;;;5071913;28;20462;-42
2023/12/09 09:13:40;;;;;;;202.60;59.37;;;;;;;;;;5074023;28;20444;-40
2023/12/09 09:16:08;;;;;;;469.03;91.60;;;;;;;;;;5073765;28;20852;-39
2023/12/09 09:18:36;;;;;;;532.83;103.73;;;;;;;;;;5073243;28;20549;-40
2023/12/09 09:21:04;;;;;;;489.27;95.30;;;;;;;;;;5079850;28;21201;-41
2023/12/09 09:23:31;;;;;;;248.07;63.23;;;;;;;;;;5065342;28;20427;-40
2023/12/09 09:25:59;;;;;;;564.27;102.73;;;;;;;;;;5073920;28;20870;-40
2023/12/09 09:28:26;;;;;;;572.67;104.57;;;;;;;;;;5072503;28;20940;-41
2023/12/09 09:30:55;;;;;;;478.27;96.27;;;;;;;;;;5073180;28;20787;-41
2023/12/09 09:33:23;;;;;;;414.60;85.30;;;;;;;;;;5072411;28;20441;-40
2023/12/09 09:35:54;;;;;;;434.27;93.70;;;;;;;;;;5073304;28;20434;-40
2023/12/09 09:38:21;;;;;;;274.00;67.00;;;;;;;;;;5072533;28;20454;-39
2023/12/09 09:40:50;;;;;;;237.97;67.63;;;;;;;;;;5072878;28;20462;-40
2023/12/09 09:43:20;;;;;;;345.13;81.30;;;;;;;;;;5073008;28;20951;-41
2023/12/09 09:45:49;;;;;;;417.47;84.13;;;;;;;;;;5073138;28;20492;-39
2023/12/09 09:48:18;;;;;;;340.23;77.63;;;;;;;;;;5072082;28;20454;-40
2023/12/09 09:50:47;;;;;;;335.87;79.87;;;;;;;;;;5073205;28;20464;-40
2023/12/09 09:53:21;;;;;;;320.27;77.23;;;;;;;;;;5072720;28;20485;-39
2023/12/09 09:55:49;;;;;;;313.50;69.60;;;;;;;;;;5071555;28;20434;-41
2023/12/09 09:58:17;;;;;;;370.07;84.70;;;;;;;;;;5072115;28;20465;-39
2023/12/09 10:00:45;;;;;;;430.83;91.97;;;;;;;;;;5073178;28;20458;-39
2023/12/09 10:03:13;;;;;;;387.53;86.13;;;;;;;;;;5073264;28;20445;-39
2023/12/09 10:05:43;;;;;;;273.83;68.23;;;;;;;;;;5072669;28;20474;-40
2023/12/09 10:08:10;;;;;;;279.67;71.83;;;;;;;;;;5072525;28;21020;-40
2023/12/09 10:10:39;;;;;;;330.83;87.00;;;;;;;;;;5072329;28;20529;-40
2023/12/09 10:13:08;;;;;;;290.67;79.87;;;;;;;;;;5072787;28;20462;-42
2023/12/09 10:15:37;;;;;;;378.33;85.83;;;;;;;;;;5073015;28;20827;-40
2023/12/09 10:18:05;;;;;;;294.00;78.67;;;;;;;;;;5072939;28;20455;-41
2023/12/09 10:20:34;;;;;;;364.50;89.13;;;;;;;;;;5075725;28;20457;-40
2023/12/09 10:23:03;;;;;;;222.03;70.37;;;;;;;;;;5069551;28;20439;-39
2023/12/09 10:25:31;;;;;;;461.90;93.80;;;;;;;;;;5070632;28;20473;-41
2023/12/09 10:27:59;;;;;;;318.43;80.17;;;;;;;;;;5073029;28;20454;-40
2023/12/09 10:30:26;;;;;;;395.17;84.97;;;;;;;;;;5072484;28;20476;-40
2023/12/09 10:32:54;;;;;;;399.53;91.63;;;;;;;;;;5073156;28;20963;-40
2023/12/09 10:35:22;;;;;;;412.97;88.57;;;;;;;;;;5071696;28;20841;-40
2023/12/09 10:37:50;;;;;;;351.10;84.77;;;;;;;;;;5071226;28;20489;-39
2023/12/09 10:40:20;;;;;;;132.27;52.30;;;;;;;;;;5070911;28;20469;-40
2023/12/09 10:42:51;;;;;;;377.60;83.73;;;;;;;;;;5070639;28;20434;-41
2023/12/09 10:45:19;;;;;;;603.23;114.13;;;;;;;;;;5070725;28;20981;-39
2023/12/09 10:47:48;;;;;;;378.37;79.90;;;;;;;;;;5070519;28;20458;-40
2023/12/09 10:50:15;;;;;;;324.50;80.30;;;;;;;;;;5072287;28;20480;-43
2023/12/09 10:52:43;;;;;;;177.27;55.90;;;;;;;;;;5071931;28;20476;-40
2023/12/09 10:55:11;;;;;;;126.57;52.07;;;;;;;;;;5071305;28;20491;-40
2023/12/09 10:57:40;;;;;;;471.57;100.13;;;;;;;;;;5071502;28;20536;-42
2023/12/09 11:00:10;;;;;;;98.30;49.47;;;;;;;;;;5071034;28;20454;-40
2023/12/09 11:02:40;;;;;;;135.13;55.27;;;;;;;;;;5071069;28;20505;-40
2023/12/09 11:05:09;;;;;;;89.10;47.57;;;;;;;;;;5067312;28;20467;-39
2023/12/09 11:07:37;;;;;;;89.87;48.07;;;;;;;;;;5063168;28;20466;-40
2023/12/09 11:10:06;;;;;;;84.03;47.63;;;;;;;;;;5071263;28;21028;-40
2023/12/09 11:12:35;;;;;;;80.43;48.47;;;;;;;;;;5070578;28;20431;-41
2023/12/09 11:15:17;;;;;;;91.30;51.60;;;;;;;;;;5071629;28;20435;-40
2023/12/09 11:17:45;;;;;;;62.80;41.43;;;;;;;;;;5068378;28;20469;-40
2023/12/09 11:20:16;;;;;;;54.27;41.87;;;;;;;;;;5075624;28;20455;-40
2023/12/09 11:22:44;;;;;;;85.63;47.67;;;;;;;;;;5071997;28;20431;-39
2023/12/09 11:25:13;;;;;;;66.37;44.50;;;;;;;;;;5071796;28;20557;-39
2023/12/09 11:27:41;;;;;;;64.13;44.00;;;;;;;;;;5071807;28;20935;-40
2023/12/09 11:30:28;;;;;;;57.87;42.37;;;;;;;;;;5072522;28;20477;-40
2023/12/09 11:32:56;;;;;;;52.93;39.37;;;;;;;;;;5070916;28;20442;-39
2023/12/09 11:35:24;;;;;;;51.63;42.13;;;;;;;;;;5070567;28;20487;-40
2023/12/09 11:37:52;;;;;;;49.63;39.13;;;;;;;;;;5071384;28;20462;-40
2023/12/09 11:40:19;;;;;;;69.27;41.10;;;;;;;;;;5090330;22;20582;-41
2023/12/09 11:42:47;;;;;;;45.20;37.97;;;;;;;;;;5067190;28;20435;-38
2023/12/09 11:45:15;;;;;;;64.00;39.70;;;;;;;;;;5070935;28;21170;-39
2023/12/09 11:47:45;;;;;;;42.20;35.50;;;;;;;;;;5068184;28;20470;-39
2023/12/09 11:50:15;;;;;;;44.87;35.40;;;;;;;;;;5065947;28;20464;-39
2023/12/09 11:52:42;;;;;;;46.10;38.33;;;;;;;;;;5068572;28;20431;-39
2023/12/09 11:55:10;;;;;;;52.33;39.67;;;;;;;;;;5071158;28;20547;-38
2023/12/09 11:57:39;;;;;;;41.10;33.83;;;;;;;;;;5072267;28;20462;-38
2023/12/09 12:00:11;;;;;;;41.33;36.80;;;;;;;;;;5066333;28;20538;-39
2023/12/09 12:02:39;;;;;;;44.50;37.33;;;;;;;;;;5071128;28;20426;-39
2023/12/09 12:05:09;;;;;;;42.60;36.30;;;;;;;;;;5073316;28;20446;-41
2023/12/09 12:07:36;;;;;;;48.07;38.00;;;;;;;;;;5076828;28;20867;-39
2023/12/09 12:10:04;;;;;;;44.90;39.50;;;;;;;;;;5064209;28;20452;-38
2023/12/09 12:12:32;;;;;;;48.20;38.47;;;;;;;;;;5072667;28;20458;-38
2023/12/09 12:15:00;;;;;;;48.03;40.80;;;;;;;;;;5070662;28;20849;-38
2023/12/09 12:17:28;;;;;;;55.00;39.80;;;;;;;;;;5067269;28;21000;-39
2023/12/09 12:19:56;;;;;;;56.03;42.90;;;;;;;;;;5067236;28;20835;-38
2023/12/09 12:22:25;;;;;;;50.07;39.67;;;;;;;;;;5076251;28;20439;-38
2023/12/09 12:24:54;;;;;;;55.83;41.27;;;;;;;;;;5064609;28;20435;-40
2023/12/09 12:27:22;;;;;;;41.53;37.17;;;;;;;;;;5063788;28;21047;-40
2023/12/09 12:29:53;;;;;;;50.83;38.50;;;;;;;;;;5065637;28;20522;-38
2023/12/09 12:32:20;;;;;;;45.03;38.77;;;;;;;;;;5069888;28;20787;-40
2023/12/09 12:34:48;;;;;;;46.13;40.10;;;;;;;;;;5077530;28;20434;-38
2023/12/09 12:37:16;;;;;;;57.73;40.20;;;;;;;;;;5060308;28;20961;-40
2023/12/09 12:39:46;;;;;;;47.20;39.40;;;;;;;;;;5070096;28;20434;-39
2023/12/09 12:42:13;;;;;;;50.40;40.00;;;;;;;;;;5060839;28;20442;-40
2023/12/09 12:44:41;;;;;;;45.93;37.90;;;;;;;;;;5072131;28;20443;-40
2023/12/09 12:47:09;;;;;;;42.83;37.70;;;;;;;;;;5061948;28;20530;-38
2023/12/09 12:49:37;;;;;;;49.83;36.80;;;;;;;;;;5069147;28;20437;-39
2023/12/09 12:52:06;;;;;;;38.73;34.50;;;;;;;;;;5065125;28;20529;-39
2023/12/09 12:54:34;;;;;;;38.13;34.03;;;;;;;;;;5062634;28;20493;-38
2023/12/09 12:57:05;;;;;;;42.77;33.03;;;;;;;;;;5067324;28;20458;-36
2023/12/09 12:59:32;;;;;;;37.87;33.63;;;;;;;;;;5056938;28;20447;-39
2023/12/09 13:02:00;;;;;;;47.60;36.23;;;;;;;;;;5061517;28;20515;-38
2023/12/09 13:04:28;;;;;;;42.73;36.10;;;;;;;;;;5069731;28;20515;-40
2023/12/09 13:06:55;;;;;;;39.50;34.00;;;;;;;;;;5064960;28;20523;-41
2023/12/09 13:09:23;;;;;;;41.87;34.80;;;;;;;;;;5066733;28;20431;-39
2023/12/09 13:11:51;;;;;;;44.30;32.77;;;;;;;;;;5066738;28;20466;-39
2023/12/09 13:14:20;;;;;;;43.20;35.33;;;;;;;;;;5063762;28;20431;-36
2023/12/09 13:16:48;;;;;;;43.37;35.37;;;;;;;;;;5061897;28;20427;-38
2023/12/09 13:19:16;;;;;;;39.37;34.40;;;;;;;;;;5066216;28;20860;-38
2023/12/09 13:21:44;;;;;;;41.00;33.60;;;;;;;;;;5060506;28;21004;-38
2023/12/09 13:24:12;;;;;;;40.80;34.47;;;;;;;;;;5075244;28;20442;-39
2023/12/09 13:26:39;;;;;;;41.53;34.90;;;;;;;;;;5061506;28;20516;-38
2023/12/09 13:29:07;;;;;;;50.43;37.37;;;;;;;;;;5041372;28;20454;-38
2023/12/09 13:31:37;;;;;;;48.93;36.33;;;;;;;;;;5060869;28;20454;-42
2023/12/09 13:34:05;;;;;;;50.10;35.20;;;;;;;;;;5058776;28;20443;-37
2023/12/09 13:36:33;;;;;;;58.20;37.87;;;;;;;;;;5055539;28;20427;-38
2023/12/09 13:39:03;;;;;;;48.23;37.83;;;;;;;;;;5068104;28;20467;-38
2023/12/09 13:41:31;;;;;;;70.67;40.57;;;;;;;;;;5060277;28;20458;-40
2023/12/09 13:44:00;;;;;;;62.33;38.57;;;;;;;;;;5067402;28;20638;-39
2023/12/09 13:46:28;;;;;;;53.43;38.67;;;;;;;;;;5061661;28;20500;-39
2023/12/09 13:48:57;;;;;;;55.57;38.73;;;;;;;;;;5064220;28;20458;-38
2023/12/09 13:51:25;;;;;;;53.03;39.67;;;;;;;;;;5059146;28;20522;-38
2023/12/09 13:53:53;;;;;;;60.87;40.10;;;;;;;;;;5070648;28;20872;-38
2023/12/09 13:56:21;;;;;;;61.20;40.93;;;;;;;;;;5056983;28;20705;-39
2023/12/09 13:58:48;;;;;;;60.43;39.47;;;;;;;;;;5066971;28;20458;-39
2023/12/09 14:01:16;;;;;;;67.17;40.83;;;;;;;;;;5077236;28;20488;-37
2023/12/09 14:03:44;;;;;;;65.53;41.30;;;;;;;;;;5060170;28;20422;-38
2023/12/09 14:06:13;;;;;;;41.67;37.13;;;;;;;;;;5068270;28;20496;-38
2023/12/09 14:08:41;;;;;;;52.43;38.70;;;;;;;;;;5064214;28;20463;-37
2023/12/09 14:11:09;;;;;;;55.00;39.43;;;;;;;;;;5056152;28;20455;-37
2023/12/09 14:13:36;;;;;;;64.53;38.90;;;;;;;;;;5073544;28;20975;-38
2023/12/09 14:16:04;;;;;;;54.37;36.33;;;;;;;;;;5069927;28;20807;-38
2023/12/09 14:18:32;;;;;;;60.10;40.00;;;;;;;;;;5063335;28;20986;-39